Weather at Ein Shemer Airfield

Public forecast

Using degrees Celsius for public forecast. Weather courtesy of forecast.io.

Closest aviation weather report (METAR) to Ein Shemer Airfield

Closest report is Haifa International Airport, 22.2 nm (41.1 km) N. Retrieved 2020/10/30 15:50 UTC (1 hour ago):

LLHA 301550Z 35012KT CAVOK 26/20 Q1013

Closest aviation forecast (TAF) to Ein Shemer Airfield

Closest forecast is Herzliya Airport, 17.9 nm (33.2 km) SSW. Retrieved 2020/10/30 12:00 UTC (5 hours ago):

TAF LLHZ 301107Z 3012/3112 33012KT 9999 SCT020 BECMG 3016/3019 36006KT BECMG 3022/3024 SCT025 BECMG 3107/3109 33012KT SCT030 TX27/3012Z TN21/3103Z